Search for airport 
image banner adimage banner adimage banner ad
image banner ad

9CA4 - Hdmc Holdings Llc

Located in Joshua Tree, United States

ICAO - 9CA4, IATA -

Data provided by Airmate  

General information

Coordinates: N34°7'53" W116°16'33"
Elevation is 2652 feet MSL.
Magnetic variation is 14° East
View others Airports in California

Operational data

Special qualification required
Current time UTC:
Current local time:
Weather at : KNXP - Twentynine Palms Self ( 21 km )
METAR: KNXP 141156Z AUTO 29007KT 9SM CLR 23/00 A2998 RMK AO2 SLPNO T02280000 10317 20228 51005 $
TAF: TAF KNXP 1409/1509 VRB05KT 9999 SKC QNH2984INS BECMG 1420/1422 23010KT 9999 SKC QNH2981INS TEMPO 1500/1504 24014G25KT FM150630 30009KT 9999 SKC QNH2991INS T22/1413Z T41/1421Z
View NOTAMs / SUP AIP / TFR affecting this airport [VIEW]
Communications frequencies: [VIEW]

Runways:

Airport contact information

Address: Joshua Tree United States

Satellite view of 9CA4